CheckWX is a tool to help pilots better visualize weather data.  It is not intended as a substitute for an official pre-flight weather briefing.

15:04:21 UTC

WSSS METAR
Singapore Changi International Airport
Singapore, Singapore
Current

34 mins ago

WSSS 161430Z 17007KT 140V200 9999 FEW018 BKN300 28/24 Q1009 NOSIG
Observed
Jul-16 @ 14:30 UTC
Wind
  • 170° at 7 KTS
Visibility
10,000+ meters
Flight Rules
VFR
Cloud Levels
  • Few at 1,800' AGL
  • Broken at 30,000' AGL
Temperature
28°C / 82°F
Dewpoint
24°C / 75°F
Heat Index
32°C / 89°F
Humidity
79%
Altimeter
29.79" Hg
Pressure
1008.92 hPa
Previous

1 hour ago

WSSS 161400Z 17007KT 9999 FEW018 BKN300 29/24 Q1009 NOSIG
Observed
Jul-16 @ 14:00 UTC
Wind
  • 170° at 7 KTS
Visibility
10,000+ meters
Flight Rules
VFR
Cloud Levels
  • Few at 1,800' AGL
  • Broken at 30,000' AGL
Temperature
29°C / 84°F
Dewpoint
24°C / 75°F
Heat Index
33°C / 92°F
Humidity
74%
Altimeter
29.79" Hg
Pressure
1008.92 hPa
Previous

2 hours ago

WSSS 161330Z 17007KT 9999 FEW018 BKN300 29/24 Q1009 NOSIG
Observed
Jul-16 @ 13:30 UTC
Wind
  • 170° at 7 KTS
Visibility
10,000+ meters
Flight Rules
VFR
Cloud Levels
  • Few at 1,800' AGL
  • Broken at 30,000' AGL
Temperature
29°C / 84°F
Dewpoint
24°C / 75°F
Heat Index
33°C / 92°F
Humidity
74%
Altimeter
29.79" Hg
Pressure
1008.92 hPa